Terminal Aerodrome Forecast
Issued by NWS

Home | Current Version | Previous Version | Text Only | Print | Product List | Glossary On
Versions: 1 2 3 4 5 6 7 8 9 10 11 12
969
FTUS42 KFFC 201123
TAFPDK
TAF
KPDK 201123Z 2012/2112 00000KT P6SM BKN035
     FM201600 30006KT P6SM SCT035
     FM210300 00000KT P6SM SCT040 SCT250
     FM211100 VRB03KT 5SM BR SCT250=

USA.gov is the U.S. government's official web portal to all federal, state and local government web resources and services.